Mc Intyre, Pennsylvania
Current Conditions -  °F | °C
As of 1:15 PM on Thursday 29 Jan 2015 (Local Time) from KIDI Reporting Station
Haze Haze  
Wind Chill: 26°   Ceiling: 300
Heat Index: 32°   Visibility: 0.75mi
Dew Point: 28°   Wind: 6mph
Humidity: 87%   Direction: 150°SSE
Pressure: 29.93"   Gusts: NA
Location:  40.5762°N, 79.2963°W
Report Text: KIDI 291815Z AUTO 15005KT 3/4SM HZ BKN003 BKN020 OVC033 00/M02 A2993 RMK A01
Loading
Personal Weather Stations






























Interactive Weather Map New forecast layout! Learn more

10-Day Weather Forecast

Advertisements
Track Severe Weather on mobile